Ana Sayfa
METAR-TAF:

METAR-TAF

Havaalanları :

Felker Army Airfield

Fort Eustis, Virginia, Amerika Birleşik Devletleri

Enlem: 37-08N, Boylam: 076-37W, yükseklik: 4 m

Güncel hava durumu gözlemi

Rapor saat 06:56 UTC de 59 dakika önce yapıldı.
Rüzgar kuzeybatıdan 6 kt
Sıcaklık 20°C
Nem 46%
Basınç 1011 hPa
Görüş mesafesi: 8.0 km
Açık gökyüzü
Toz Pusu

METAR: KFAF 300656Z AUTO 31006KT 5SM HZ CLR 20/08 A2985 RMK AO2 SLP111 T02030083 $

Saat: 03:55 (07:55 UTC)


TAF: eksik

4.000'den fazla havaalanı için hava durumu gözlemleri ve tahminleri (METAR ve TAF raporları).

Kullanılabilir istasyonlar harita üzerinde sarı ve kırmızı noktalarla gösterilir.

İstasyonun adını görmek için fareyi noktanın üzerinde gezdirin.

Sonrasında hava gözlem ve tahminlerini görmek için tıklayın.

Haritayı değiştirmek için: yaklaştırmak için siyah artı işaretli yeşil düğmeye ve uzaklaştırmak için de eksi işaretli düğmeye hızla tıklayın; bitişik haritalar için yeşil okları kullanın.


METAR-TAF: